Time;durP1;ratioP1;P1;durP2;ratioP2;P2;SDS_P1;SDS_P2;PMS_P1;PMS_P2;Temp;Humidity;BMP_temperature;BMP_pressure;BME280_temperature;BME280_humidity;BME280_pressure;Samples;Min_cycle;Max_cycle;Signal;HPM_P1;HPM_P2
2022/04/19 00:00:07;;;;;;;3.87;1.80;;;6.90;99.90;;;;;;5052300;28;20495;-72
2022/04/19 00:02:34;;;;;;;4.33;2.47;;;6.80;99.90;;;;;;5051962;28;20477;-71
2022/04/19 00:05:01;;;;;;;3.60;1.90;;;6.90;99.90;;;;;;5051784;28;20943;-70
2022/04/19 00:07:29;;;;;;;3.63;1.40;;;6.90;99.90;;;;;;5052278;28;20450;-74
2022/04/19 00:09:56;;;;;;;4.80;2.27;;;6.90;99.90;;;;;;5052022;28;20498;-72
2022/04/19 00:12:23;;;;;;;3.70;1.67;;;6.80;99.90;;;;;;5052067;28;20481;-73
2022/04/19 00:14:51;;;;;;;4.07;1.70;;;6.90;99.90;;;;;;5052135;28;20991;-71
2022/04/19 00:17:19;;;;;;;3.87;2.20;;;6.90;99.90;;;;;;5051943;28;20981;-72
2022/04/19 00:19:46;;;;;;;3.93;2.40;;;6.90;99.90;;;;;;5051894;28;20524;-72
2022/04/19 00:22:13;;;;;;;5.17;1.90;;;6.90;99.90;;;;;;5051790;28;20477;-70
2022/04/19 00:24:41;;;;;;;3.93;2.40;;;6.90;99.90;;;;;;5052002;28;20457;-72
2022/04/19 00:27:08;;;;;;;4.10;2.20;;;6.90;99.90;;;;;;5051339;28;20504;-70
2022/04/19 00:29:35;;;;;;;4.53;2.13;;;6.80;99.90;;;;;;5051811;28;20446;-71
2022/04/19 00:32:04;;;;;;;4.57;2.67;;;6.80;99.90;;;;;;5051461;28;21014;-71
2022/04/19 00:34:31;;;;;;;3.67;1.83;;;6.80;99.90;;;;;;5051574;28;20475;-71
2022/04/19 00:36:58;;;;;;;4.33;2.50;;;6.90;99.90;;;;;;5051541;28;20482;-72
2022/04/19 00:39:25;;;;;;;3.80;2.20;;;6.80;99.90;;;;;;5051645;28;20454;-71
2022/04/19 00:41:52;;;;;;;3.70;2.30;;;6.90;99.90;;;;;;5051563;28;20454;-71
2022/04/19 00:44:19;;;;;;;4.63;2.20;;;6.80;99.90;;;;;;5051521;28;20461;-70
2022/04/19 00:46:46;;;;;;;3.80;2.00;;;6.90;99.90;;;;;;5051429;28;20477;-71
2022/04/19 00:49:17;;;;;;;3.90;1.97;;;6.90;99.90;;;;;;5050938;28;20519;-73
2022/04/19 00:51:44;;;;;;;4.10;2.23;;;6.90;99.90;;;;;;5051546;28;20963;-72
2022/04/19 00:54:13;;;;;;;4.43;3.00;;;6.90;99.90;;;;;;5050850;28;20890;-73
2022/04/19 00:56:40;;;;;;;4.80;2.43;;;7.00;99.90;;;;;;5051062;28;20545;-72
2022/04/19 00:59:10;;;;;;;3.73;2.13;;;6.90;99.90;;;;;;5051217;28;20450;-72
2022/04/19 01:01:38;;;;;;;3.53;2.00;;;6.90;99.90;;;;;;5050927;28;20492;-70
2022/04/19 01:04:06;;;;;;;4.10;2.50;;;6.90;99.90;;;;;;5051059;28;20477;-73
2022/04/19 01:06:34;;;;;;;4.17;2.20;;;6.90;99.90;;;;;;5051184;28;21016;-72
2022/04/19 01:09:01;;;;;;;4.07;2.33;;;6.90;99.90;;;;;;5051099;28;20472;-72
2022/04/19 01:14:15;;;;;;;3.43;1.73;;;6.80;99.90;;;;;;5050903;28;20755;-70
2022/04/19 01:16:42;;;;;;;3.90;2.20;;;6.80;99.90;;;;;;5050964;28;20524;-73
2022/04/19 01:19:15;;;;;;;3.93;2.17;;;6.80;99.90;;;;;;5050863;28;20449;-73
2022/04/19 01:21:48;;;;;;;4.57;2.33;;;6.80;99.90;;;;;;5050337;28;20548;-75
2022/04/19 01:24:16;;;;;;;4.13;2.00;;;6.70;99.90;;;;;;5050602;28;20474;-72
2022/04/19 01:26:44;;;;;;;5.03;2.80;;;6.70;99.90;;;;;;5050747;28;20465;-74
2022/04/19 01:29:12;;;;;;;5.37;2.03;;;6.80;99.90;;;;;;5050838;28;20446;-71
2022/04/19 01:31:42;;;;;;;4.47;2.77;;;6.80;99.90;;;;;;5050461;28;20454;-73
2022/04/19 01:34:09;;;;;;;4.20;2.80;;;6.90;99.90;;;;;;5050370;28;20513;-72
2022/04/19 01:36:37;;;;;;;5.57;2.57;;;6.80;99.90;;;;;;5050278;28;20450;-73
2022/04/19 01:39:07;;;;;;;4.00;2.43;;;6.80;99.90;;;;;;5049189;28;20457;-73
2022/04/19 01:41:35;;;;;;;4.80;3.10;;;6.80;99.90;;;;;;5050298;28;20481;-71
2022/04/19 01:44:04;;;;;;;4.37;2.60;;;6.80;99.90;;;;;;5050424;28;20470;-73
2022/04/19 01:46:32;;;;;;;4.60;2.87;;;6.80;99.90;;;;;;5050519;28;20454;-74
2022/04/19 01:49:00;;;;;;;4.80;2.80;;;6.80;99.90;;;;;;5049672;28;21022;-70
2022/04/19 01:51:27;;;;;;;4.40;2.67;;;6.80;99.90;;;;;;5050326;28;20453;-72
2022/04/19 01:53:54;;;;;;;4.83;3.07;;;6.80;99.90;;;;;;5050239;28;20839;-73
2022/04/19 01:56:23;;;;;;;5.37;3.20;;;6.90;99.90;;;;;;5050131;28;20458;-72
2022/04/19 01:58:50;;;;;;;5.00;3.23;;;6.90;99.90;;;;;;5049783;28;20453;-73
2022/04/19 02:01:18;;;;;;;4.60;3.10;;;6.80;99.90;;;;;;5049825;28;20493;-72
2022/04/19 02:03:45;;;;;;;5.50;3.20;;;6.80;99.90;;;;;;5050045;28;20481;-73
2022/04/19 02:06:14;;;;;;;4.60;3.20;;;6.70;99.90;;;;;;5050032;28;20527;-69
2022/04/19 02:08:41;;;;;;;5.23;4.10;;;6.70;99.90;;;;;;5049869;28;20504;-70
2022/04/19 02:11:08;;;;;;;4.57;3.40;;;6.60;99.90;;;;;;5049792;28;20807;-71
2022/04/19 02:13:36;;;;;;;4.90;3.20;;;6.60;99.90;;;;;;5049821;28;20517;-71
2022/04/19 02:16:04;;;;;;;5.23;3.60;;;6.70;99.90;;;;;;5049587;28;20458;-70
2022/04/19 02:18:31;;;;;;;4.97;3.10;;;6.70;99.90;;;;;;5049768;28;20454;-69
2022/04/19 02:21:00;;;;;;;3.93;2.37;;;6.80;99.90;;;;;;5049585;28;21000;-70
2022/04/19 02:23:28;;;;;;;5.60;2.30;;;6.80;99.90;;;;;;5049474;28;20978;-72
2022/04/19 02:25:56;;;;;;;3.73;1.80;;;6.80;99.90;;;;;;5049619;28;20449;-70
2022/04/19 02:28:23;;;;;;;4.10;2.20;;;6.70;99.90;;;;;;5049645;28;20508;-72
2022/04/19 02:30:52;;;;;;;3.97;2.13;;;6.70;99.90;;;;;;5049592;28;20462;-71
2022/04/19 02:33:19;;;;;;;3.73;2.13;;;6.70;99.90;;;;;;5049537;28;20469;-73
2022/04/19 02:35:46;;;;;;;4.27;1.90;;;6.60;99.90;;;;;;5049498;28;20450;-76
2022/04/19 02:38:13;;;;;;;4.00;2.27;;;6.60;99.90;;;;;;5049386;28;20541;-75
2022/04/19 02:40:40;;;;;;;4.80;2.23;;;6.50;99.90;;;;;;5049533;28;20547;-72
2022/04/19 02:43:08;;;;;;;4.17;2.33;;;6.50;99.90;;;;;;5049045;28;20474;-72
2022/04/19 02:45:35;;;;;;;3.80;2.20;;;6.50;99.90;;;;;;5049229;28;20449;-73
2022/04/19 02:48:05;;;;;;;3.80;2.33;;;6.50;99.90;;;;;;5049156;28;20450;-74
2022/04/19 02:50:34;;;;;;;4.70;2.80;;;6.50;99.90;;;;;;5048984;28;20442;-76
2022/04/19 02:53:02;;;;;;;4.03;2.50;;;6.50;99.90;;;;;;5049261;28;20478;-76
2022/04/19 02:55:30;;;;;;;3.90;2.50;;;6.60;99.90;;;;;;5049258;28;20449;-70
2022/04/19 02:57:57;;;;;;;5.10;2.40;;;6.60;99.90;;;;;;5049143;28;20855;-73
2022/04/19 03:00:25;;;;;;;3.90;2.33;;;6.50;99.90;;;;;;5048889;28;20553;-73
2022/04/19 03:02:53;;;;;;;5.70;3.37;;;6.50;99.90;;;;;;5049121;28;20469;-73
2022/04/19 03:05:22;;;;;;;4.03;2.83;;;6.50;99.90;;;;;;5049262;28;20446;-73
2022/04/19 03:07:49;;;;;;;4.60;2.37;;;6.50;99.90;;;;;;5049342;28;20549;-73
2022/04/19 03:10:17;;;;;;;4.67;3.10;;;6.50;99.90;;;;;;5048732;28;20458;-73
2022/04/19 03:12:44;;;;;;;5.83;2.90;;;6.60;99.90;;;;;;5048892;28;20481;-72
2022/04/19 03:15:12;;;;;;;5.03;3.43;;;6.60;99.90;;;;;;5048994;28;20499;-73
2022/04/19 03:17:39;;;;;;;5.80;3.90;;;6.60;99.90;;;;;;5049217;28;20786;-73
2022/04/19 03:20:09;;;;;;;4.43;3.20;;;6.60;99.90;;;;;;5049147;28;20453;-73
2022/04/19 03:28:07;;;;;;;4.70;3.20;;;6.60;99.90;;;;;;5049251;28;20636;-74
2022/04/19 03:30:34;;;;;;;6.57;4.03;;;6.60;99.90;;;;;;5049063;28;20802;-69
2022/04/19 03:33:01;;;;;;;5.20;3.60;;;6.60;99.90;;;;;;5049630;28;20469;-70
2022/04/19 03:35:28;;;;;;;5.17;3.40;;;6.60;99.90;;;;;;5048938;28;20454;-71
2022/04/19 03:37:57;;;;;;;5.13;3.27;;;6.60;99.90;;;;;;5048807;28;20457;-71
2022/04/19 03:40:25;;;;;;;5.70;4.00;;;6.60;99.90;;;;;;5048647;28;20453;-69
2022/04/19 03:42:55;;;;;;;5.13;3.60;;;6.70;99.90;;;;;;5048838;28;20493;-71
2022/04/19 03:45:22;;;;;;;5.20;3.30;;;6.70;99.90;;;;;;5048383;28;20867;-68
2022/04/19 03:47:50;;;;;;;5.03;3.30;;;6.70;99.90;;;;;;5048630;28;20520;-68
2022/04/19 03:50:18;;;;;;;5.47;3.37;;;6.70;99.90;;;;;;5048353;28;20571;-70
2022/04/19 03:52:45;;;;;;;4.87;3.23;;;6.60;99.90;;;;;;5048603;28;20465;-68
2022/04/19 03:55:13;;;;;;;5.33;3.50;;;6.70;99.90;;;;;;5048794;28;20478;-68
2022/04/19 03:57:40;;;;;;;5.00;3.33;;;6.70;99.90;;;;;;5048777;28;20450;-68
2022/04/19 04:00:08;;;;;;;4.50;3.00;;;6.60;99.90;;;;;;5048478;28;20446;-70
2022/04/19 04:02:35;;;;;;;5.10;3.33;;;6.60;99.90;;;;;;5049760;28;20513;-68
2022/04/19 04:05:03;;;;;;;5.53;3.47;;;6.70;99.90;;;;;;5051942;28;20599;-70
2022/04/19 04:07:30;;;;;;;5.43;3.57;;;6.70;99.90;;;;;;5052221;28;21016;-71
2022/04/19 04:09:57;;;;;;;5.20;3.93;;;6.80;99.90;;;;;;5052098;28;20900;-69
2022/04/19 04:12:26;;;;;;;5.80;3.60;;;6.90;99.90;;;;;;5052140;28;20956;-70
2022/04/19 04:14:53;;;;;;;4.77;3.73;;;6.90;99.90;;;;;;5051876;28;20938;-70
2022/04/19 04:17:21;;;;;;;5.60;3.47;;;6.90;99.90;;;;;;5052235;28;20508;-69
2022/04/19 04:19:48;;;;;;;6.00;4.10;;;6.90;99.90;;;;;;5051910;28;20984;-69
2022/04/19 04:22:15;;;;;;;7.07;4.90;;;7.00;99.90;;;;;;5051970;28;20486;-70
2022/04/19 04:24:42;;;;;;;7.20;5.70;;;6.90;99.90;;;;;;5051609;28;20466;-71
2022/04/19 04:27:09;;;;;;;5.97;4.63;;;7.00;99.90;;;;;;5051779;28;20461;-69
2022/04/19 04:29:38;;;;;;;6.30;5.37;;;7.00;99.90;;;;;;5051688;28;20446;-71
2022/04/19 04:32:06;;;;;;;7.03;5.67;;;7.00;99.90;;;;;;5051502;28;20552;-68
2022/04/19 04:34:34;;;;;;;9.30;7.50;;;6.90;99.90;;;;;;5051516;28;20473;-70
2022/04/19 04:37:01;;;;;;;9.50;7.77;;;6.80;99.90;;;;;;5051641;28;20809;-70
2022/04/19 04:39:28;;;;;;;10.40;8.10;;;6.80;99.90;;;;;;5051691;28;20563;-69
2022/04/19 04:41:55;;;;;;;9.07;7.43;;;6.70;99.90;;;;;;5051244;28;20982;-71
2022/04/19 04:44:22;;;;;;;8.63;7.40;;;6.80;99.90;;;;;;5051441;28;20497;-70
2022/04/19 04:49:39;;;;;;;10.53;8.90;;;7.10;99.90;;;;;;5051130;28;20476;-70
2022/04/19 04:52:08;;;;;;;9.73;8.50;;;7.30;99.90;;;;;;5051476;28;20519;-70
2022/04/19 04:54:36;;;;;;;10.20;8.23;;;7.30;99.90;;;;;;5050948;28;20469;-69
2022/04/19 04:57:03;;;;;;;9.80;7.87;;;7.40;99.90;;;;;;5051246;28;20450;-70
2022/04/19 04:59:30;;;;;;;9.70;7.87;;;7.40;99.90;;;;;;5051343;28;20457;-70
2022/04/19 05:02:00;;;;;;;10.07;7.90;;;7.40;99.90;;;;;;5051179;28;20548;-70
2022/04/19 05:04:27;;;;;;;9.27;6.50;;;7.50;99.90;;;;;;5050743;28;20474;-68
2022/04/19 05:06:54;;;;;;;9.43;7.70;;;7.60;99.90;;;;;;5050665;28;20458;-70
2022/04/19 05:09:21;;;;;;;10.33;7.53;;;7.60;99.90;;;;;;5050547;28;20446;-70
2022/04/19 05:11:50;;;;;;;8.80;7.83;;;7.60;99.90;;;;;;5050920;28;20458;-71
2022/04/19 05:14:17;;;;;;;9.43;7.90;;;7.70;99.90;;;;;;5050613;28;20504;-70
2022/04/19 05:16:45;;;;;;;10.63;7.83;;;7.80;99.90;;;;;;5050698;28;20534;-71
2022/04/19 05:19:13;;;;;;;10.13;8.00;;;7.90;99.90;;;;;;5050762;28;21085;-71
2022/04/19 05:21:40;;;;;;;9.33;8.10;;;8.00;99.90;;;;;;5050513;28;20490;-69
2022/04/19 05:24:08;;;;;;;8.70;7.70;;;8.20;99.90;;;;;;5050122;28;20474;-70
2022/04/19 05:26:36;;;;;;;10.60;8.23;;;8.20;99.90;;;;;;5050447;28;20946;-69
2022/04/19 05:29:04;;;;;;;9.17;6.80;;;8.20;99.90;;;;;;5050424;28;20454;-70
2022/04/19 05:31:31;;;;;;;7.20;6.10;;;8.30;99.90;;;;;;5050192;28;20507;-70
2022/04/19 05:33:58;;;;;;;8.33;6.77;;;8.30;99.90;;;;;;5050089;28;20564;-69
2022/04/19 05:36:26;;;;;;;7.53;6.40;;;8.10;99.90;;;;;;5050236;28;20461;-70
2022/04/19 05:38:54;;;;;;;8.73;7.73;;;7.80;99.90;;;;;;5050207;28;20453;-70
2022/04/19 05:41:21;;;;;;;8.53;7.20;;;7.80;99.90;;;;;;5050308;28;20551;-71
2022/04/19 05:43:49;;;;;;;9.27;7.23;;;7.90;99.90;;;;;;5050113;28;20502;-70
2022/04/19 05:46:17;;;;;;;9.67;7.10;;;8.00;99.90;;;;;;5050269;28;20458;-72
2022/04/19 05:48:44;;;;;;;9.83;7.70;;;7.80;99.90;;;;;;5050237;28;20489;-68
2022/04/19 05:51:11;;;;;;;9.40;7.57;;;7.80;99.90;;;;;;5050227;28;20500;-71
2022/04/19 05:53:40;;;;;;;9.67;7.67;;;7.80;99.90;;;;;;5050046;28;20477;-69
2022/04/19 05:56:07;;;;;;;9.83;8.27;;;7.70;99.90;;;;;;5050289;28;20462;-72
2022/04/19 05:58:34;;;;;;;11.17;9.50;;;7.70;99.90;;;;;;5050077;28;20850;-69
2022/04/19 06:01:01;;;;;;;11.87;10.20;;;7.90;99.90;;;;;;5049688;28;20490;-69
2022/04/19 06:06:14;;;;;;;10.83;9.73;;;8.00;99.90;;;;;;5050137;28;20441;-70
2022/04/19 06:08:43;;;;;;;11.37;10.00;;;7.90;99.90;;;;;;5049849;28;20458;-70
2022/04/19 06:11:12;;;;;;;12.10;10.47;;;7.80;99.90;;;;;;5049766;28;20516;-70
2022/04/19 06:13:39;;;;;;;13.17;10.17;;;7.80;99.90;;;;;;5049734;28;20468;-71
2022/04/19 06:16:06;;;;;;;12.77;10.80;;;7.80;99.90;;;;;;5049654;28;20476;-70
2022/04/19 06:18:34;;;;;;;13.57;11.23;;;7.70;99.90;;;;;;5049219;28;20919;-67
2022/04/19 06:21:03;;;;;;;13.80;11.03;;;7.50;99.90;;;;;;5049535;28;20926;-72
2022/04/19 06:23:30;;;;;;;14.27;12.00;;;7.40;99.90;;;;;;5049572;28;20501;-74
2022/04/19 06:25:59;;;;;;;14.80;11.53;;;7.30;99.90;;;;;;5049127;28;20478;-76
2022/04/19 06:28:26;;;;;;;13.97;10.57;;;7.20;99.90;;;;;;5049310;28;20810;-72
2022/04/19 06:30:53;;;;;;;12.03;9.60;;;7.30;99.90;;;;;;5049219;28;20454;-72
2022/04/19 06:33:20;;;;;;;13.83;11.37;;;7.20;99.90;;;;;;5049178;28;20471;-72
2022/04/19 06:35:47;;;;;;;13.53;10.43;;;7.30;99.90;;;;;;5049637;28;20458;-86
2022/04/19 06:38:14;;;;;;;13.50;10.83;;;7.50;99.90;;;;;;5049441;28;20484;-72
2022/04/19 06:40:41;;;;;;;12.30;9.57;;;7.60;99.90;;;;;;5049206;28;20450;-72
2022/04/19 06:43:10;;;;;;;10.17;8.00;;;7.60;99.90;;;;;;5048620;28;20504;-70
2022/04/19 06:45:37;;;;;;;12.40;9.60;;;7.70;99.90;;;;;;5048937;28;20453;-72
2022/04/19 06:48:05;;;;;;;13.27;9.97;;;7.80;99.90;;;;;;5048934;28;20938;-71
2022/04/19 06:50:32;;;;;;;11.40;9.30;;;7.80;99.90;;;;;;5049157;28;20454;-70
2022/04/19 06:52:59;;;;;;;12.77;8.50;;;8.00;99.90;;;;;;5049165;28;20485;-73
2022/04/19 06:55:26;;;;;;;10.40;8.00;;;8.00;99.90;;;;;;5048839;28;20460;-71
2022/04/19 06:57:54;;;;;;;10.60;8.07;;;8.10;99.90;;;;;;5049084;28;20450;-72
2022/04/19 07:00:22;;;;;;;13.27;7.73;;;8.10;99.90;;;;;;5048705;28;20489;-73
2022/04/19 07:02:50;;;;;;;10.17;7.23;;;8.30;99.90;;;;;;5048930;28;20568;-71
2022/04/19 07:05:17;;;;;;;8.50;6.90;;;8.40;99.90;;;;;;5049097;28;20450;-76
2022/04/19 07:07:44;;;;;;;8.67;6.80;;;8.50;99.90;;;;;;5048900;28;20966;-73
2022/04/19 07:10:13;;;;;;;12.13;8.00;;;8.50;99.90;;;;;;5048773;28;20461;-73
2022/04/19 07:12:40;;;;;;;8.97;7.10;;;8.40;99.90;;;;;;5048750;28;20469;-72
2022/04/19 07:15:08;;;;;;;7.70;6.80;;;8.20;99.90;;;;;;5048763;28;20457;-73
2022/04/19 07:17:40;;;;;;;9.00;6.57;;;8.20;99.90;;;;;;5049064;28;20827;-70
2022/04/19 07:28:22;;;;;;;6.27;3.83;;;8.20;99.90;;;;;;5048283;28;20996;-74
2022/04/19 07:30:49;;;;;;;6.87;4.50;;;8.50;99.90;;;;;;5048413;28;20454;-73
2022/04/19 07:33:17;;;;;;;5.00;3.13;;;8.50;99.90;;;;;;5048716;28;20473;-71
2022/04/19 07:35:45;;;;;;;5.60;4.07;;;8.50;99.90;;;;;;5048762;28;20446;-71
2022/04/19 07:38:12;;;;;;;5.57;3.90;;;8.40;99.90;;;;;;5050873;28;20523;-79
2022/04/19 07:40:40;;;;;;;5.70;3.33;;;8.50;99.90;;;;;;5052557;28;20453;-74
2022/04/19 07:43:07;;;;;;;6.07;3.67;;;8.70;99.90;;;;;;5052169;28;20490;-75
2022/04/19 07:45:35;;;;;;;5.70;3.23;;;8.80;99.90;;;;;;5052602;28;21014;-75
2022/04/19 07:48:04;;;;;;;5.80;3.77;;;8.40;99.90;;;;;;5052076;28;20549;-72
2022/04/19 07:50:33;;;;;;;4.87;2.90;;;8.20;99.90;;;;;;5052736;28;20496;-76
2022/04/19 07:53:00;;;;;;;7.57;3.13;;;8.30;99.90;;;;;;5052393;28;20804;-74
2022/04/19 07:55:27;;;;;;;6.00;3.53;;;8.50;99.90;;;;;;5052568;28;20450;-77
2022/04/19 07:57:54;;;;;;;5.60;3.83;;;8.50;99.90;;;;;;5052273;28;20458;-76
2022/04/19 08:00:24;;;;;;;4.93;3.67;;;8.40;99.90;;;;;;5052132;28;20462;-76
2022/04/19 08:02:52;;;;;;;8.50;5.10;;;8.60;99.90;;;;;;5051752;28;20489;-78
2022/04/19 08:05:19;;;;;;;7.77;5.20;;;8.60;99.90;;;;;;5052144;28;20461;-76
2022/04/19 08:07:48;;;;;;;7.10;5.87;;;8.70;99.90;;;;;;5052385;28;20457;-76
2022/04/19 08:10:16;;;;;;;9.83;4.50;;;9.00;99.90;;;;;;5051721;28;20472;-74
2022/04/19 08:12:43;;;;;;;6.80;4.90;;;9.20;99.90;;;;;;5051931;28;20982;-72
2022/04/19 08:15:10;;;;;;;6.70;4.63;;;9.20;99.90;;;;;;5051789;28;20484;-78
2022/04/19 08:17:38;;;;;;;6.30;4.47;;;9.20;99.90;;;;;;5053701;28;20982;-73
2022/04/19 08:20:06;;;;;;;9.23;6.47;;;9.30;99.90;;;;;;5052076;28;20509;-73
2022/04/19 08:22:33;;;;;;;5.53;3.60;;;9.30;99.90;;;;;;5051522;28;20490;-73
2022/04/19 08:25:03;;;;;;;6.87;4.50;;;9.20;99.90;;;;;;5051585;28;20971;-74
2022/04/19 08:27:30;;;;;;;5.97;3.97;;;9.00;99.90;;;;;;5051377;28;20453;-73
2022/04/19 08:29:57;;;;;;;11.20;9.10;;;9.20;99.90;;;;;;5051765;28;20545;-76
2022/04/19 08:32:24;;;;;;;5.97;4.27;;;9.30;99.90;;;;;;5051769;28;20457;-75
2022/04/19 08:34:51;;;;;;;5.57;3.90;;;9.50;99.90;;;;;;5051783;28;20457;-76
2022/04/19 08:37:20;;;;;;;5.47;3.50;;;9.30;99.90;;;;;;5051164;28;20454;-75
2022/04/19 08:39:47;;;;;;;8.73;4.20;;;9.40;99.90;;;;;;5051577;28;20540;-76
2022/04/19 08:42:16;;;;;;;5.63;4.07;;;9.70;99.90;;;;;;5050953;28;20884;-76
2022/04/19 08:44:44;;;;;;;6.43;3.90;;;10.00;99.90;;;;;;5051099;28;20484;-75
2022/04/19 08:47:12;;;;;;;6.70;4.27;;;9.80;99.90;;;;;;5051071;28;20498;-76
2022/04/19 08:49:41;;;;;;;5.60;3.97;;;9.80;99.90;;;;;;5050264;28;20493;-76
2022/04/19 08:52:09;;;;;;;5.20;3.33;;;9.70;99.90;;;;;;5051210;28;20953;-76
2022/04/19 08:57:30;;;;;;;5.60;3.47;;;10.50;99.90;;;;;;5051083;28;20941;-76
2022/04/19 08:59:58;;;;;;;5.37;4.03;;;10.80;99.90;;;;;;5050976;28;20466;-75
2022/04/19 09:02:26;;;;;;;6.70;4.27;;;11.00;99.90;;;;;;5050848;28;20497;-76
2022/04/19 09:04:54;;;;;;;5.70;3.77;;;11.30;99.90;;;;;;5050711;28;20488;-76
2022/04/19 09:07:36;;;;;;;5.20;4.00;;;11.60;99.90;;;;;;5050552;28;20453;-75
2022/04/19 09:10:03;;;;;;;6.20;4.23;;;12.20;99.90;;;;;;5050755;28;20889;-77
2022/04/19 09:12:31;;;;;;;10.33;7.40;;;12.70;99.90;;;;;;5050522;28;20446;-77
2022/04/19 09:15:00;;;;;;;8.83;7.73;;;12.60;99.90;;;;;;5050410;28;20450;-77
2022/04/19 09:17:32;;;;;;;6.47;4.43;;;12.60;98.70;;;;;;5050744;28;20458;-76
2022/04/19 09:20:15;;;;;;;8.73;6.60;;;12.40;99.90;;;;;;5050646;28;20500;-75
2022/04/19 09:22:43;;;;;;;6.27;4.57;;;12.00;99.90;;;;;;5050525;28;20500;-75
2022/04/19 09:25:18;;;;;;;6.07;3.90;;;11.70;99.90;;;;;;5050876;28;20443;-76
2022/04/19 09:27:48;;;;;;;5.90;4.17;;;11.50;99.90;;;;;;5050319;28;20537;-72
2022/04/19 09:30:20;;;;;;;6.33;4.20;;;11.50;99.90;;;;;;5050151;28;20458;-71
2022/04/19 09:33:11;;;;;;;6.60;4.33;;;11.30;99.90;;;;;;5050304;28;20557;-70
2022/04/19 09:35:40;;;;;;;6.20;5.10;;;11.20;99.90;;;;;;5049692;28;20465;-71
2022/04/19 09:38:08;;;;;;;7.77;4.40;;;11.60;99.90;;;;;;5050327;28;20529;-71
2022/04/19 09:40:37;;;;;;;6.13;4.67;;;11.90;99.90;;;;;;5050519;28;20508;-72
2022/04/19 09:43:13;;;;;;;5.77;4.77;;;12.10;99.90;;;;;;5050506;28;20604;-68
2022/04/19 09:45:56;;;;;;;6.33;4.37;;;12.20;99.40;;;;;;5050448;28;20460;-70
2022/04/19 09:48:26;;;;;;;7.50;4.97;;;12.50;98.20;;;;;;5050209;28;20869;-69
2022/04/19 09:50:55;;;;;;;6.10;4.90;;;12.60;96.00;;;;;;5049935;28;20465;-68
2022/04/19 09:53:23;;;;;;;5.60;3.97;;;12.80;94.30;;;;;;5049839;28;20489;-68
2022/04/19 09:55:53;;;;;;;6.33;4.43;;;12.80;92.60;;;;;;5050038;28;20454;-70
2022/04/19 09:58:22;;;;;;;6.47;4.50;;;13.20;94.60;;;;;;5049960;28;20446;-67
2022/04/19 10:00:50;;;;;;;12.70;10.17;;;13.40;92.40;;;;;;5048952;28;20466;-69
2022/04/19 10:09:00;;;;;;;7.90;4.07;;;14.00;90.70;;;;;;5049932;28;20465;-68
2022/04/19 10:11:29;;;;;;;7.00;5.00;;;14.20;90.10;;;;;;5049579;28;20472;-69
2022/04/19 10:13:59;;;;;;;5.90;4.37;;;14.00;87.70;;;;;;5049324;28;20522;-68
2022/04/19 10:16:29;;;;;;;6.37;4.60;;;13.70;81.70;;;;;;5049670;28;20577;-68
2022/04/19 10:18:56;;;;;;;6.10;4.60;;;13.70;82.10;;;;;;5049700;28;20468;-69
2022/04/19 10:21:27;;;;;;;5.90;4.50;;;13.50;81.60;;;;;;5049641;28;20902;-68
2022/04/19 10:24:10;;;;;;;8.63;5.20;;;13.40;77.00;;;;;;5049002;28;20485;-71
2022/04/19 10:26:46;;;;;;;7.37;5.47;;;13.40;76.20;;;;;;5049282;28;20507;-71
2022/04/19 10:29:20;;;;;;;6.50;4.70;;;13.80;79.40;;;;;;5049507;28;20458;-73
2022/04/19 10:32:01;;;;;;;5.77;4.10;;;14.10;73.20;;;;;;5049647;28;20458;-70
2022/04/19 10:34:29;;;;;;;6.17;4.20;;;13.60;70.00;;;;;;5049129;28;20556;-71
2022/04/19 10:36:58;;;;;;;6.10;5.40;;;12.90;68.30;;;;;;5049379;28;20464;-68
2022/04/19 10:39:31;;;;;;;7.60;4.00;;;12.70;73.00;;;;;;5049443;28;20454;-68
2022/04/19 10:42:00;;;;;;;7.40;5.83;;;12.70;74.50;;;;;;5049551;28;20456;-71
2022/04/19 10:44:31;;;;;;;7.50;6.10;;;12.80;82.30;;;;;;5049369;28;20935;-70
2022/04/19 10:47:16;;;;;;;6.07;4.53;;;12.90;85.20;;;;;;5049046;28;20938;-68
2022/04/19 10:50:07;;;;;;;7.20;5.57;;;12.90;86.00;;;;;;5048936;28;20548;-69
2022/04/19 10:52:51;;;;;;;9.30;5.27;;;12.90;89.50;;;;;;5048943;28;20507;-71
2022/04/19 10:55:26;;;;;;;5.97;4.20;;;12.90;89.80;;;;;;5049036;28;20449;-75
2022/04/19 11:00:48;;;;;;;6.50;3.77;;;12.50;77.00;;;;;;5049555;28;20445;-66
2022/04/19 11:03:17;;;;;;;5.77;3.43;;;12.30;70.00;;;;;;5049511;28;20514;-72
2022/04/19 11:05:46;;;;;;;5.90;3.47;;;12.20;67.20;;;;;;5049414;28;20481;-72
2022/04/19 11:08:44;;;;;;;5.47;2.80;;;12.10;70.30;;;;;;5049546;28;20458;-70
2022/04/19 11:11:24;;;;;;;5.33;3.00;;;12.50;72.90;;;;;;5049503;28;20916;-72
2022/04/19 11:14:17;;;;;;;5.07;3.17;;;12.70;73.30;;;;;;5053046;28;20491;-72
2022/04/19 11:16:48;;;;;;;5.10;3.17;;;13.10;67.30;;;;;;5053222;28;20473;-70
2022/04/19 11:19:18;;;;;;;5.10;3.27;;;13.50;64.10;;;;;;5053291;28;20535;-73
2022/04/19 11:21:52;;;;;;;5.37;2.97;;;13.60;64.40;;;;;;5052715;28;20453;-74
2022/04/19 11:24:56;;;;;;;8.70;3.77;;;13.60;58.50;;;;;;5052849;28;20543;-74
2022/04/19 11:27:23;;;;;;;5.93;3.43;;;13.50;56.50;;;;;;5052822;28;20998;-72
2022/04/19 11:29:51;;;;;;;5.17;3.40;;;13.40;59.50;;;;;;5052766;28;20449;-69
2022/04/19 11:32:27;;;;;;;7.10;3.60;;;13.50;60.60;;;;;;5052864;28;20446;-74
2022/04/19 11:35:02;;;;;;;5.73;3.10;;;13.40;60.30;;;;;;5052613;28;20450;-71
2022/04/19 11:37:31;;;;;;;5.90;3.00;;;13.20;60.00;;;;;;5052413;28;20462;-73
2022/04/19 11:48:31;;;;;;;4.57;2.87;;;14.50;58.00;;;;;;5052285;28;20984;-70
2022/04/19 11:51:08;;;;;;;5.50;3.17;;;14.00;57.50;;;;;;5052409;28;20473;-70
2022/04/19 11:53:36;;;;;;;7.53;3.73;;;13.70;56.40;;;;;;5052477;28;20445;-73
2022/04/19 11:56:04;;;;;;;4.23;2.60;;;12.90;57.00;;;;;;5052251;28;20509;-69
2022/04/19 11:58:31;;;;;;;4.90;3.07;;;13.00;57.80;;;;;;5052489;28;20457;-68
2022/04/19 12:01:01;;;;;;;5.37;2.90;;;13.00;56.70;;;;;;5052410;28;20497;-70
2022/04/19 12:03:30;;;;;;;8.70;2.03;;;13.00;53.70;;;;;;5052350;28;20493;-73
2022/04/19 12:06:07;;;;;;;4.23;2.00;;;12.60;53.10;;;;;;5052093;28;20449;-70
2022/04/19 12:08:37;;;;;;;6.10;3.60;;;12.20;57.10;;;;;;5052499;28;20532;-70
2022/04/19 12:11:06;;;;;;;4.50;2.70;;;11.10;63.80;;;;;;5051949;28;20923;-70
2022/04/19 12:13:33;;;;;;;4.77;3.00;;;10.80;65.10;;;;;;5051870;28;20454;-67
2022/04/19 12:16:03;;;;;;;4.43;2.60;;;10.90;67.00;;;;;;5052224;28;20959;-69
2022/04/19 12:18:36;;;;;;;5.23;2.30;;;10.30;65.60;;;;;;5051734;28;20464;-68
2022/04/19 12:21:04;;;;;;;5.00;2.80;;;10.50;67.40;;;;;;5051921;28;20518;-69
2022/04/19 12:23:34;;;;;;;5.10;2.90;;;10.80;68.00;;;;;;5051225;28;20481;-68
2022/04/19 12:26:06;;;;;;;5.83;2.73;;;11.10;66.80;;;;;;5052798;28;20458;-67
2022/04/19 12:28:44;;;;;;;4.07;1.87;;;11.30;60.00;;;;;;5053623;28;20465;-67
2022/04/19 12:31:32;;;;;;;5.03;2.23;;;12.10;59.50;;;;;;5054198;28;21332;-67
2022/04/19 12:34:02;;;;;;;4.37;1.80;;;13.00;57.20;;;;;;5051808;28;20469;-67
2022/04/19 12:36:29;;;;;;;6.00;2.33;;;13.80;57.20;;;;;;5051828;28;20488;-68
2022/04/19 12:39:02;;;;;;;3.60;1.70;;;14.30;55.80;;;;;;5051718;28;20453;-70
2022/04/19 12:41:40;;;;;;;4.47;2.17;;;14.60;54.40;;;;;;5051597;28;20947;-68
2022/04/19 12:44:11;;;;;;;7.23;4.50;;;15.10;51.90;;;;;;5051167;28;20489;-69
2022/04/19 12:46:42;;;;;;;4.60;2.90;;;15.30;51.50;;;;;;5051428;28;20811;-68
2022/04/19 12:49:25;;;;;;;4.27;2.20;;;15.50;50.50;;;;;;5051005;28;20474;-67
2022/04/19 12:52:03;;;;;;;4.47;2.07;;;15.60;49.20;;;;;;5050928;28;20561;-68
2022/04/19 12:54:30;;;;;;;4.80;2.33;;;15.30;47.80;;;;;;5051237;28;20974;-65
2022/04/19 12:59:46;;;;;;;4.67;2.40;;;14.30;49.30;;;;;;5051243;28;20441;-67
2022/04/19 13:02:15;;;;;;;4.80;3.00;;;14.00;50.30;;;;;;5050840;28;20915;-68
2022/04/19 13:04:44;;;;;;;6.93;2.57;;;14.00;52.10;;;;;;5050827;28;20577;-69
2022/04/19 13:12:40;;;;;;;4.03;2.20;;;15.10;51.40;;;;;;5050619;28;20530;-67
2022/04/19 13:15:08;;;;;;;4.03;1.90;;;15.40;49.50;;;;;;5051100;28;20869;-68
2022/04/19 13:17:37;;;;;;;3.90;2.30;;;15.20;51.20;;;;;;5050850;28;20454;-66
2022/04/19 13:20:08;;;;;;;4.83;2.80;;;15.30;51.00;;;;;;5050587;28;20482;-68
2022/04/19 13:22:36;;;;;;;4.40;2.93;;;15.50;52.00;;;;;;5050998;28;20458;-67
2022/04/19 13:25:04;;;;;;;5.93;2.47;;;15.20;54.20;;;;;;5050185;28;20492;-71
2022/04/19 13:27:35;;;;;;;4.87;2.97;;;14.90;54.40;;;;;;5049158;28;20536;-77
2022/04/19 13:30:05;;;;;;;4.70;2.97;;;14.50;55.10;;;;;;5050295;28;20474;-76
2022/04/19 13:32:32;;;;;;;5.07;3.20;;;14.10;54.30;;;;;;5050499;28;20458;-74
2022/04/19 13:35:00;;;;;;;5.80;3.53;;;13.90;55.40;;;;;;5050916;28;20461;-78
2022/04/19 13:40:13;;;;;;;5.10;2.97;;;13.60;57.40;;;;;;5050467;28;20495;-71
2022/04/19 13:42:41;;;;;;;8.43;3.10;;;13.70;62.20;;;;;;5050470;28;20458;-68
2022/04/19 13:45:09;;;;;;;6.43;3.33;;;14.00;64.80;;;;;;5050276;28;21408;-67
2022/04/19 13:47:36;;;;;;;5.23;3.37;;;14.70;63.40;;;;;;5050293;28;20450;-67
2022/04/19 13:50:04;;;;;;;5.43;3.40;;;15.20;61.80;;;;;;5049675;28;20824;-72
2022/04/19 13:52:33;;;;;;;4.73;2.87;;;15.80;62.90;;;;;;5050261;28;20511;-65
2022/04/19 13:55:00;;;;;;;7.67;5.17;;;16.60;59.20;;;;;;5049848;28;20493;-71